Time;durP1;ratioP1;P1;durP2;ratioP2;P2;SDS_P1;SDS_P2;PMS_P1;PMS_P2;Temp;Humidity;BMP_temperature;BMP_pressure;BME280_temperature;BME280_humidity;BME280_pressure;Samples;Min_cycle;Max_cycle;Signal;HPM_P1;HPM_P2
2021/09/10 00:00:07;;;;;;;31.30;17.10;;;;;;;12.58;89.21;99554.91;4941666;28;20034;-78
2021/09/10 00:02:38;;;;;;;37.95;18.08;;;;;;;12.60;89.42;99557.44;4974728;28;20043;-78
2021/09/10 00:05:06;;;;;;;40.95;17.90;;;;;;;12.61;89.37;99552.00;4975031;28;20045;-78
2021/09/10 00:07:32;;;;;;;43.17;17.73;;;;;;;12.62;89.30;99547.50;4975301;28;20574;-79
2021/09/10 00:09:58;;;;;;;38.30;18.42;;;;;;;12.63;89.39;99554.50;4941574;28;20054;-80
2021/09/10 00:12:23;;;;;;;35.67;18.02;;;;;;;12.64;89.43;99547.41;4975143;28;20035;-79
2021/09/10 00:14:49;;;;;;;37.75;18.45;;;;;;;12.66;89.37;99548.94;4973751;28;20047;-80
2021/09/10 00:17:15;;;;;;;42.17;18.58;;;;;;;12.64;89.35;99550.88;4974621;28;20042;-79
2021/09/10 00:19:41;;;;;;;40.15;18.50;;;;;;;12.64;89.45;99548.22;4973240;28;20045;-78
2021/09/10 00:22:07;;;;;;;38.72;18.23;;;;;;;12.64;89.76;99548.22;4957000;28;20643;-79
2021/09/10 00:24:33;;;;;;;41.88;20.10;;;;;;;12.65;89.52;99551.72;4941227;28;20064;-79
2021/09/10 00:26:58;;;;;;;43.92;19.90;;;;;;;12.64;89.65;99544.75;4974612;28;20069;-80
2021/09/10 00:29:24;;;;;;;41.38;20.20;;;;;;;12.66;89.72;99548.09;4973470;28;20050;-79
2021/09/10 00:31:50;;;;;;;41.45;19.10;;;;;;;12.65;89.99;99552.56;4974511;28;20042;-80
2021/09/10 00:34:16;;;;;;;40.92;19.40;;;;;;;12.65;89.95;99544.59;4973178;28;20476;-76
2021/09/10 00:36:46;;;;;;;44.13;19.58;;;;;;;12.64;89.64;99545.56;4974503;28;20049;-76
2021/09/10 00:39:13;;;;;;;41.97;20.23;;;;;;;12.64;89.74;99548.22;4974059;28;20051;-78
2021/09/10 00:41:39;;;;;;;39.60;20.13;;;;;;;12.62;89.96;99551.03;4974575;28;20097;-80
2021/09/10 00:44:05;;;;;;;43.15;20.33;;;;;;;12.61;89.91;99548.47;4972776;28;20049;-77
2021/09/10 00:46:31;;;;;;;48.30;21.60;;;;;;;12.59;89.83;99543.31;4974167;28;20046;-79
2021/09/10 00:48:57;;;;;;;36.08;19.42;;;;;;;12.59;89.56;99553.09;4973782;28;20522;-79
2021/09/10 00:51:23;;;;;;;46.92;21.13;;;;;;;12.59;89.73;99553.09;4956346;28;20053;-78
2021/09/10 00:53:49;;;;;;;45.35;20.73;;;;;;;12.58;89.94;99543.47;4972840;28;20039;-76
2021/09/10 00:56:15;;;;;;;48.75;22.42;;;;;;;12.59;89.92;99543.31;4959470;28;20078;-77
2021/09/10 00:58:41;;;;;;;46.78;20.95;;;;;;;12.59;90.06;99539.84;4975920;28;20046;-79
2021/09/10 01:01:07;;;;;;;45.05;21.73;;;;;;;12.59;90.29;99542.50;4975496;28;20096;-78
2021/09/10 01:03:33;;;;;;;50.35;21.67;;;;;;;12.59;90.22;99545.16;4992619;28;20468;-77
2021/09/10 01:06:00;;;;;;;46.65;21.42;;;;;;;12.59;90.27;99535.34;4992564;28;20073;-78
2021/09/10 01:08:27;;;;;;;46.55;21.20;;;;;;;12.59;90.07;99539.84;4975075;28;20035;-75
2021/09/10 01:10:53;;;;;;;44.90;21.25;;;;;;;12.65;90.27;99541.94;4975257;28;20057;-76
2021/09/10 01:13:19;;;;;;;49.80;22.30;;;;;;;12.72;90.01;99536.94;4991823;28;20628;-77
2021/09/10 01:15:45;;;;;;;47.20;21.45;;;;;;;12.78;89.95;99541.69;4975317;28;20508;-77
2021/09/10 01:18:11;;;;;;;45.28;21.23;;;;;;;12.83;89.73;99528.03;4992656;28;20049;-79
2021/09/10 01:20:37;;;;;;;46.03;22.00;;;;;;;12.89;89.56;99523.00;4975412;28;20050;-78
2021/09/10 01:23:03;;;;;;;41.70;20.67;;;;;;;12.94;89.21;99531.38;4975053;28;20558;-78
2021/09/10 01:25:29;;;;;;;40.97;20.52;;;;;;;12.99;89.04;99527.50;4975404;28;20053;-77
2021/09/10 01:27:58;;;;;;;39.88;19.63;;;;;;;13.01;88.83;99518.41;4991167;28;20045;-77
2021/09/10 01:30:35;;;;;;;45.53;20.52;;;;;;;13.08;88.62;99516.91;4959070;28;20053;-76
2021/09/10 01:33:04;;;;;;;40.83;19.55;;;;;;;13.09;88.20;99513.25;4975076;28;20432;-77
2021/09/10 01:35:29;;;;;;;39.72;20.98;;;;;;;13.10;88.20;99514.91;4992485;28;20057;-76
2021/09/10 01:37:56;;;;;;;42.13;19.80;;;;;;;13.11;88.11;99505.97;4974696;28;20046;-76
2021/09/10 01:40:22;;;;;;;42.25;20.55;;;;;;;13.14;87.99;99502.22;4992321;28;20125;-77
2021/09/10 01:42:48;;;;;;;39.97;20.90;;;;;;;13.19;87.70;99512.41;4991131;28;20407;-78
2021/09/10 01:45:14;;;;;;;45.50;19.20;;;;;;;13.16;87.52;99518.00;4974650;28;20129;-78
2021/09/10 01:47:40;;;;;;;38.80;19.90;;;;;;;13.13;87.79;99515.63;4992282;28;20042;-77
2021/09/10 01:50:09;;;;;;;45.22;20.83;;;;;;;13.07;87.55;99520.53;4991916;28;20084;-78
2021/09/10 01:52:35;;;;;;;58.47;28.20;;;;;;;13.01;88.07;99515.75;4992063;28;20034;-77
2021/09/10 01:55:01;;;;;;;36.60;17.92;;;;;;;13.02;87.90;99517.44;4991637;28;20525;-76
2021/09/10 01:57:27;;;;;;;42.38;20.52;;;;;;;13.03;88.03;99513.78;4974824;28;20046;-78
2021/09/10 01:59:53;;;;;;;41.83;20.05;;;;;;;13.08;87.97;99511.59;4991867;28;20120;-77
2021/09/10 02:02:19;;;;;;;45.42;20.55;;;;;;;13.13;87.98;99516.47;4959949;28;20047;-76
2021/09/10 02:04:44;;;;;;;38.35;19.77;;;;;;;13.18;87.74;99511.56;4952399;29;20409;-77
2021/09/10 02:07:10;;;;;;;42.20;20.20;;;;;;;13.26;87.76;99518.84;4934913;29;20484;-76
2021/09/10 02:09:36;;;;;;;37.92;21.00;;;;;;;13.29;87.34;99513.25;4952046;29;20102;-77
2021/09/10 02:12:06;;;;;;;52.80;26.10;;;;;;;13.32;87.37;99512.13;4952966;29;20042;-77
2021/09/10 02:14:35;;;;;;;40.47;20.83;;;;;;;13.35;87.04;99510.03;4953381;29;20075;-78
2021/09/10 02:17:04;;;;;;;34.35;19.58;;;;;;;13.40;87.10;99504.34;4953219;29;20047;-78
2021/09/10 02:19:30;;;;;;;;;;;;;;;13.41;86.82;99506.84;4920377;29;20047;-79
2021/09/10 02:21:56;;;;;;;37.03;18.73;;;;;;;13.41;86.74;99503.38;4951682;29;19962;-78
2021/09/10 02:24:21;;;;;;;36.15;19.02;;;;;;;13.46;86.68;99510.91;4952481;28;20081;-78
2021/09/10 02:26:48;;;;;;;39.45;18.48;;;;;;;13.50;86.38;99504.34;4952999;29;20051;-79
2021/09/10 02:29:14;;;;;;;40.40;18.98;;;;;;;13.53;86.34;99509.34;4952841;29;20102;-78
2021/09/10 02:31:40;;;;;;;39.60;19.77;;;;;;;13.56;86.31;99509.09;4953049;29;20097;-77
2021/09/10 02:34:06;;;;;;;41.53;23.17;;;;;;;13.60;86.14;99510.47;4935634;29;20062;-78
2021/09/10 02:36:34;;;;;;;40.10;20.48;;;;;;;13.62;85.92;99500.56;4935615;29;20047;-81
2021/09/10 02:39:01;;;;;;;44.80;20.73;;;;;;;13.65;85.76;99508.22;4951585;29;20043;-80
2021/09/10 02:41:27;;;;;;;35.67;19.33;;;;;;;13.71;85.67;99502.34;4935822;29;20046;-78
2021/09/10 02:43:53;;;;;;;40.17;19.15;;;;;;;13.75;85.55;99509.03;4952844;29;20800;-78
2021/09/10 02:46:19;;;;;;;38.83;19.08;;;;;;;13.78;85.29;99512.41;4952934;29;20452;-78
2021/09/10 02:48:44;;;;;;;38.65;20.02;;;;;;;13.79;85.12;99508.75;4952863;29;20073;-81
2021/09/10 02:51:10;;;;;;;37.58;18.48;;;;;;;13.85;85.27;99508.19;4951667;29;20031;-82
2021/09/10 02:53:36;;;;;;;35.55;18.98;;;;;;;13.87;84.81;99512.38;4952663;29;20094;-80
2021/09/10 02:56:03;;;;;;;37.17;19.08;;;;;;;13.88;84.78;99515.88;4944127;28;20061;-77
2021/09/10 02:58:31;;;;;;;;;;;;;;;13.91;84.72;99510.28;4969083;28;20408;-80
2021/09/10 03:00:59;;;;;;;34.65;18.98;;;;;;;13.90;84.59;99519.22;4970634;28;19925;-79
2021/09/10 03:03:27;;;;;;;38.17;19.75;;;;;;;13.88;84.67;99507.88;4971956;28;20526;-80
2021/09/10 03:05:54;;;;;;;37.63;19.00;;;;;;;13.89;84.73;99507.78;4970528;28;20490;-79
2021/09/10 03:08:19;;;;;;;35.20;19.13;;;;;;;13.93;84.53;99520.75;4970647;28;20122;-80
2021/09/10 03:10:45;;;;;;;40.70;20.55;;;;;;;13.93;84.47;99515.44;4970623;28;20042;-78
2021/09/10 03:13:11;;;;;;;39.17;19.17;;;;;;;13.94;84.51;99517.13;4936814;28;20046;-78
2021/09/10 03:15:37;;;;;;;36.85;18.85;;;;;;;13.96;84.39;99523.97;4970182;28;20046;-78
2021/09/10 03:18:03;;;;;;;45.78;21.73;;;;;;;14.00;84.35;99528.00;4966815;28;20435;-80
2021/09/10 03:20:29;;;;;;;40.90;19.30;;;;;;;14.04;84.28;99524.09;4971374;28;20146;-79
2021/09/10 03:22:55;;;;;;;37.13;20.15;;;;;;;14.04;84.24;99518.78;4970287;28;20582;-79
2021/09/10 03:25:21;;;;;;;41.78;20.58;;;;;;;13.99;84.08;99518.34;4971533;28;20042;-79
2021/09/10 03:27:47;;;;;;;45.15;20.83;;;;;;;14.00;84.26;99516.53;4970562;28;20042;-80
2021/09/10 03:30:13;;;;;;;40.13;19.27;;;;;;;14.06;84.53;99516.78;4971347;28;20050;-80
2021/09/10 03:32:40;;;;;;;39.55;20.15;;;;;;;14.14;83.95;99517.91;4971641;28;20480;-78
2021/09/10 03:35:06;;;;;;;39.85;20.85;;;;;;;14.14;84.27;99515.25;4970220;28;20149;-80
2021/09/10 03:37:33;;;;;;;32.97;20.23;;;;;;;14.20;83.58;99522.63;4972709;28;20387;-79
2021/09/10 03:39:58;;;;;;;37.83;19.63;;;;;;;14.29;83.57;99521.75;4972851;28;20054;-80
2021/09/10 03:42:24;;;;;;;40.65;20.70;;;;;;;14.31;83.63;99525.09;4973131;28;20047;-80
2021/09/10 03:44:50;;;;;;;37.60;19.77;;;;;;;14.35;83.38;99523.00;4972583;28;20054;-78
2021/09/10 03:47:16;;;;;;;36.55;19.77;;;;;;;14.40;83.23;99523.38;4972051;28;20053;-79
2021/09/10 03:49:42;;;;;;;46.33;22.50;;;;;;;14.47;82.93;99524.50;4974143;28;20038;-77
2021/09/10 03:52:08;;;;;;;37.92;20.90;;;;;;;14.56;82.71;99531.56;4972908;28;20092;-79
2021/09/10 03:54:34;;;;;;;40.92;20.75;;;;;;;14.64;82.39;99533.53;4972030;28;20046;-77
2021/09/10 03:57:00;;;;;;;37.30;20.55;;;;;;;14.71;82.50;99537.28;4977519;28;20038;-78
2021/09/10 03:59:26;;;;;;;40.30;20.65;;;;;;;14.77;81.76;99540.34;4975485;28;20038;-77
2021/09/10 04:01:52;;;;;;;36.03;19.58;;;;;;;14.94;81.69;99534.22;4961955;28;20107;-77
2021/09/10 04:04:18;;;;;;;33.03;18.63;;;;;;;15.17;80.92;99539.09;4960626;28;20043;-78
2021/09/10 04:06:44;;;;;;;30.75;18.25;;;;;;;15.28;80.10;99533.53;4996350;28;20049;-81
2021/09/10 04:09:10;;;;;;;30.55;17.75;;;;;;;15.37;79.58;99532.63;4976049;28;20046;-79
2021/09/10 04:11:37;;;;;;;32.35;17.60;;;;;;;15.46;79.90;99540.69;4995456;28;20634;-82
2021/09/10 04:14:04;;;;;;;34.65;18.25;;;;;;;15.60;79.30;99540.16;4944694;28;20041;-79
2021/09/10 04:16:29;;;;;;;27.77;15.95;;;;;;;15.72;78.57;99550.56;4993176;28;20068;-79
2021/09/10 04:18:55;;;;;;;29.70;16.88;;;;;;;15.80;78.36;99550.63;5005502;28;20384;-78
2021/09/10 04:21:21;;;;;;;30.60;16.42;;;;;;;15.83;77.93;99553.84;5011511;28;20495;-79
2021/09/10 04:23:47;;;;;;;29.50;16.85;;;;;;;15.87;77.82;99540.22;4995025;28;20042;-79
2021/09/10 04:26:13;;;;;;;31.33;16.65;;;;;;;15.97;78.07;99549.78;4994917;28;20041;-79
2021/09/10 04:28:39;;;;;;;29.60;17.15;;;;;;;16.04;77.66;99549.16;5012281;28;20037;-79
2021/09/10 04:31:05;;;;;;;25.08;16.75;;;;;;;16.03;76.82;99553.66;5012617;28;20137;-80
2021/09/10 04:33:30;;;;;;;33.90;19.48;;;;;;;16.20;76.93;99540.41;4992889;28;20686;-78
2021/09/10 04:35:56;;;;;;;25.50;15.73;;;;;;;16.27;76.38;99550.28;4958047;28;20046;-79
2021/09/10 04:38:22;;;;;;;29.38;16.17;;;;;;;16.41;75.62;99542.69;4990640;28;20038;-78
2021/09/10 04:40:47;;;;;;;28.73;16.40;;;;;;;16.53;75.80;99552.09;4992494;28;20125;-81
2021/09/10 04:43:13;;;;;;;35.13;17.55;;;;;;;16.69;75.14;99545.16;4990984;28;20096;-79
2021/09/10 04:45:39;;;;;;;30.45;16.27;;;;;;;16.86;74.42;99544.22;4991960;28;20093;-79
2021/09/10 04:48:05;;;;;;;30.15;15.90;;;;;;;16.85;73.92;99547.03;4992056;28;20077;-80
2021/09/10 04:50:31;;;;;;;27.55;15.60;;;;;;;16.92;73.99;99554.28;4992228;28;20042;-81
2021/09/10 04:52:57;;;;;;;32.17;16.88;;;;;;;17.34;73.30;99546.34;4992660;28;20046;-82
2021/09/10 04:55:22;;;;;;;30.35;16.55;;;;;;;17.40;72.00;99556.38;4956292;28;20622;-80
2021/09/10 04:57:48;;;;;;;38.38;18.73;;;;;;;17.52;71.83;99548.84;4974086;28;20133;-80
2021/09/10 05:00:14;;;;;;;33.88;15.25;;;;;;;17.61;71.60;99559.38;4972782;28;20045;-82
2021/09/10 05:02:41;;;;;;;32.15;16.48;;;;;;;17.73;71.82;99562.56;4956112;28;20508;-79
2021/09/10 05:05:08;;;;;;;24.92;15.15;;;;;;;17.76;70.52;99566.75;4972535;28;20124;-80
2021/09/10 05:07:34;;;;;;;28.83;14.75;;;;;;;17.67;71.12;99563.25;4940757;28;20070;-82
2021/09/10 05:10:00;;;;;;;35.60;17.00;;;;;;;17.68;70.82;99564.06;4957022;28;20148;-84
2021/09/10 05:12:29;;;;;;;29.38;14.45;;;;;;;17.70;70.61;99564.75;4957064;28;20051;-83
2021/09/10 05:14:55;;;;;;;42.03;18.75;;;;;;;17.69;70.54;99568.41;4956484;28;20097;-79
2021/09/10 05:17:21;;;;;;;45.97;18.77;;;;;;;17.66;70.51;99561.56;4974144;28;20050;-82
2021/09/10 05:19:48;;;;;;;33.53;17.13;;;;;;;17.75;70.17;99563.22;4956368;28;20093;-83
2021/09/10 05:22:14;;;;;;;27.58;15.65;;;;;;;17.86;69.94;99555.88;4932640;28;20050;-78
2021/09/10 05:24:40;;;;;;;29.52;15.82;;;;;;;17.98;69.72;99559.91;4971135;28;20528;-84
2021/09/10 05:27:06;;;;;;;29.00;15.93;;;;;;;18.32;69.05;99557.97;4956387;28;20047;-83
2021/09/10 05:29:32;;;;;;;28.50;14.32;;;;;;;18.52;68.17;99551.22;4955330;28;20074;-83
2021/09/10 05:31:59;;;;;;;29.10;15.07;;;;;;;18.88;67.01;99553.41;4939499;28;20053;-79
2021/09/10 05:34:25;;;;;;;33.10;14.85;;;;;;;19.01;66.73;99560.09;4970698;28;20038;-78
2021/09/10 05:36:52;;;;;;;26.77;13.43;;;;;;;18.95;66.31;99553.56;4955063;28;20129;-80
2021/09/10 05:39:17;;;;;;;27.33;13.13;;;;;;;18.98;66.11;99545.19;4962041;28;20595;-81
2021/09/10 05:41:43;;;;;;;30.50;15.70;;;;;;;19.29;65.41;99559.56;4939504;28;20039;-80
2021/09/10 05:44:09;;;;;;;23.05;13.45;;;;;;;20.22;63.34;99556.81;4937735;28;20058;-77
2021/09/10 05:46:35;;;;;;;23.27;13.38;;;;;;;20.27;62.35;99560.59;4938966;28;20127;-79
2021/09/10 05:49:03;;;;;;;23.38;13.27;;;;;;;20.38;61.49;99562.00;4954805;28;20122;-78
2021/09/10 05:51:32;;;;;;;23.52;13.63;;;;;;;20.33;61.91;99564.41;4970917;28;20143;-83
2021/09/10 05:53:58;;;;;;;29.27;14.95;;;;;;;20.19;61.97;99558.00;4940258;28;20047;-85
2021/09/10 05:56:24;;;;;;;29.40;14.98;;;;;;;20.40;61.93;99570.69;4954118;28;20047;-80
2021/09/10 05:58:50;;;;;;;25.17;13.15;;;;;;;20.38;61.71;99567.34;4971915;28;20050;-78
2021/09/10 06:01:15;;;;;;;23.83;13.43;;;;;;;21.10;60.06;99568.50;4982410;28;20039;-79
2021/09/10 06:03:41;;;;;;;35.33;12.75;;;;;;;21.32;59.75;99568.50;4990850;28;20609;-81
2021/09/10 06:06:10;;;;;;;20.60;12.43;;;;;;;21.74;57.44;99564.19;4974446;28;20558;-80
2021/09/10 06:08:39;;;;;;;29.20;13.27;;;;;;;22.11;56.73;99558.69;4959385;28;20070;-82
2021/09/10 06:11:05;;;;;;;22.60;12.25;;;;;;;22.23;56.09;99564.34;4975035;28;20052;-80
2021/09/10 06:13:31;;;;;;;22.80;12.70;;;;;;;22.18;56.13;99569.47;4992029;28;20136;-78
2021/09/10 06:15:57;;;;;;;22.05;13.43;;;;;;;22.70;55.50;99560.06;4958382;28;20038;-78
2021/09/10 06:18:23;;;;;;;26.95;14.77;;;;;;;23.21;53.69;99568.78;4992487;28;20429;-79
2021/09/10 06:20:49;;;;;;;27.25;13.27;;;;;;;23.55;52.41;99564.25;4974935;28;20133;-82
2021/09/10 06:23:14;;;;;;;26.60;13.00;;;;;;;24.53;50.04;99560.03;4933663;28;20134;-84
2021/09/10 06:25:43;;;;;;;23.63;11.88;;;;;;;24.18;50.25;99560.34;4939867;28;20038;-83
2021/09/10 06:28:11;;;;;;;18.88;12.27;;;;;;;24.59;49.12;99564.59;4923242;28;20732;-79
2021/09/10 06:30:37;;;;;;;25.23;11.77;;;;;;;25.85;47.30;99558.72;4951540;28;20047;-83
2021/09/10 06:33:04;;;;;;;;;;;;;;;25.88;45.98;99558.25;4925102;28;20046;-80
2021/09/10 06:35:32;;;;;;;20.73;10.75;;;;;;;26.20;45.26;99566.34;4925021;28;19957;-79
2021/09/10 06:37:58;;;;;;;19.17;11.25;;;;;;;26.38;44.24;99559.25;4973792;28;20485;-83
2021/09/10 06:40:24;;;;;;;21.63;11.82;;;;;;;26.08;45.16;99560.84;4958742;28;20098;-80
2021/09/10 06:42:51;;;;;;;17.48;10.50;;;;;;;25.92;45.26;99559.47;4947087;28;20114;-82
2021/09/10 06:45:18;;;;;;;21.60;12.13;;;;;;;25.70;45.38;99567.16;4961957;28;20039;-81
2021/09/10 06:47:49;;;;;;;14.88;10.18;;;;;;;25.46;45.43;99576.91;4934970;28;20053;-85
2021/09/10 06:50:20;;;;;;;17.88;10.30;;;;;;;25.73;45.38;99571.31;4933656;28;20047;-83
2021/09/10 06:52:48;;;;;;;18.42;10.98;;;;;;;25.95;44.96;99563.63;4909321;29;20548;-83
2021/09/10 06:55:13;;;;;;;19.63;10.75;;;;;;;26.14;43.46;99573.50;4922990;29;20058;-82
2021/09/10 06:57:43;;;;;;;16.42;9.48;;;;;;;26.07;43.40;99577.28;4937922;28;20153;-87
2021/09/10 07:00:09;;;;;;;15.45;9.77;;;;;;;27.06;42.24;99579.16;4954984;28;20459;-81
2021/09/10 07:02:35;;;;;;;19.50;9.57;;;;;;;27.48;40.85;99576.50;4970816;28;20720;-84
2021/09/10 07:05:02;;;;;;;22.08;10.23;;;;;;;27.87;40.68;99584.25;4909351;28;20508;-84
2021/09/10 07:07:28;;;;;;;19.77;9.37;;;;;;;29.08;37.36;99577.38;4957570;28;20122;-83
2021/09/10 07:09:54;;;;;;;16.30;9.77;;;;;;;30.54;34.73;99574.03;4939581;28;20138;-79
2021/09/10 07:12:21;;;;;;;13.07;8.77;;;;;;;31.38;33.59;99574.75;4958781;28;20046;-86
2021/09/10 07:14:48;;;;;;;22.00;9.18;;;;;;;32.15;32.34;99581.94;4975659;28;20047;-85
2021/09/10 07:17:14;;;;;;;14.53;8.87;;;;;;;31.61;32.88;99580.97;4927201;28;20057;-86
2021/09/10 07:19:39;;;;;;;13.47;8.40;;;;;;;32.72;30.90;99575.66;4958266;28;20508;-83
2021/09/10 07:22:05;;;;;;;15.27;8.70;;;;;;;31.32;32.67;99575.78;4944072;28;20039;-83
2021/09/10 07:24:37;;;;;;;15.63;8.33;;;;;;;29.91;33.58;99589.75;4931154;28;20042;-87
2021/09/10 07:27:05;;;;;;;12.80;7.63;;;;;;;28.85;35.88;99590.00;4931665;28;20130;-84
2021/09/10 07:29:31;;;;;;;17.73;8.40;;;;;;;27.90;38.00;99590.03;4962672;28;20133;-82
2021/09/10 07:31:58;;;;;;;17.67;9.40;;;;;;;26.72;39.65;99597.72;4965985;28;20137;-80
2021/09/10 07:34:25;;;;;;;16.80;9.32;;;;;;;25.19;42.45;99609.53;4979408;28;20141;-84
2021/09/10 07:36:52;;;;;;;25.52;13.15;;;;;;;24.33;45.06;99601.47;4930336;28;20046;-81
2021/09/10 07:39:21;;;;;;;16.38;9.68;;;;;;;23.83;46.32;99604.59;4962711;28;20049;-83
2021/09/10 07:41:54;;;;;;;17.20;12.95;;;;;;;23.73;46.74;99602.28;4981580;28;20042;-86
2021/09/10 07:44:22;;;;;;;19.50;9.70;;;;;;;23.89;47.06;99608.34;4982628;28;20495;-86
2021/09/10 07:46:53;;;;;;;21.70;9.30;;;;;;;24.01;46.81;99603.16;4939125;29;20055;-85
2021/09/10 07:49:33;;;;;;;22.45;10.77;;;;;;;23.71;47.67;99609.78;4938299;29;20115;-83
2021/09/10 07:52:17;;;;;;;22.40;9.88;;;;;;;23.73;47.56;99613.09;4921735;29;20540;-85
2021/09/10 07:54:45;;;;;;;25.20;13.18;;;;;;;23.43;48.21;99613.47;4905025;29;20573;-79
2021/09/10 07:57:11;;;;;;;19.73;10.70;;;;;;;23.06;49.02;99617.47;4902176;29;20131;-83
2021/09/10 07:59:38;;;;;;;17.08;9.93;;;;;;;22.89;49.05;99606.19;4901815;29;20098;-81
2021/09/10 08:02:07;;;;;;;20.67;11.80;;;;;;;22.72;49.69;99608.41;4902199;29;20060;-83
2021/09/10 08:04:33;;;;;;;21.45;11.93;;;;;;;22.73;49.85;99619.00;4887874;29;20068;-80
2021/09/10 08:07:00;;;;;;;19.58;9.93;;;;;;;22.72;50.29;99611.94;4887726;29;20059;-83
2021/09/10 08:09:27;;;;;;;19.27;9.35;;;;;;;22.81;50.23;99611.78;4902957;29;20051;-82
2021/09/10 08:12:19;;;;;;;19.20;10.70;;;;;;;22.63;51.04;99613.13;4901715;29;20060;-85
2021/09/10 08:14:47;;;;;;;18.98;9.68;;;;;;;22.41;50.99;99623.97;4881517;29;20049;-84
2021/09/10 08:17:13;;;;;;;17.70;9.60;;;;;;;22.06;51.70;99618.50;4883017;29;20211;-82
2021/09/10 08:19:40;;;;;;;19.25;8.73;;;;;;;22.09;52.18;99620.84;4866582;29;20072;-82
2021/09/10 08:22:34;;;;;;;24.55;9.20;;;;;;;22.32;51.94;99630.53;4865224;29;20451;-85
2021/09/10 08:25:29;;;;;;;23.83;12.35;;;;;;;22.16;51.63;99626.25;4901155;29;20233;-87
2021/09/10 08:28:00;;;;;;;25.80;12.80;;;;;;;22.09;52.20;99622.66;4886756;29;20052;-85
2021/09/10 08:30:31;;;;;;;21.95;10.70;;;;;;;22.20;51.77;99621.31;4905504;29;20271;-85
2021/09/10 08:33:09;;;;;;;24.00;11.93;;;;;;;21.91;52.33;99625.84;4863303;29;20120;-85
2021/09/10 08:35:40;;;;;;;20.77;10.00;;;;;;;21.64;53.49;99636.34;4850438;29;20060;-84
2021/09/10 08:38:11;;;;;;;20.98;11.70;;;;;;;21.78;53.94;99635.47;4817778;29;20057;-85
2021/09/10 08:40:52;;;;;;;21.00;10.13;;;;;;;21.45;54.73;99633.25;4848238;29;20508;-86
2021/09/10 08:43:20;;;;;;;20.05;11.27;;;;;;;21.32;54.94;99638.47;4797035;29;20065;-85
2021/09/10 08:45:46;;;;;;;15.18;8.82;;;;;;;21.28;54.67;99637.19;4860938;29;20084;-83
2021/09/10 08:48:17;;;;;;;19.02;10.27;;;;;;;21.11;55.38;99637.41;4867982;29;20058;-82
2021/09/10 08:50:46;;;;;;;22.77;10.63;;;;;;;21.04;55.54;99646.41;4895686;29;20151;-83
2021/09/10 08:53:12;;;;;;;17.45;9.43;;;;;;;21.04;55.60;99641.88;4904956;29;20422;-84
2021/09/10 08:55:43;;;;;;;16.00;9.23;;;;;;;20.93;55.99;99642.34;4883772;29;20051;-82
2021/09/10 08:58:14;;;;;;;20.38;10.43;;;;;;;21.00;56.00;99643.28;4909869;29;20051;-82
2021/09/10 09:00:41;;;;;;;19.80;9.80;;;;;;;21.13;56.12;99646.13;4939375;29;20433;-83
2021/09/10 09:03:11;;;;;;;16.63;10.27;;;;;;;21.34;55.95;99647.19;4922668;29;20202;-84
2021/09/10 09:05:38;;;;;;;21.48;10.02;;;;;;;21.42;55.74;99646.22;4908250;29;20092;-83
2021/09/10 09:08:40;;;;;;;19.60;9.52;;;;;;;21.48;54.99;99643.63;4913891;29;20055;-85
2021/09/10 09:11:37;;;;;;;19.27;10.63;;;;;;;21.49;54.80;99645.28;4994725;28;20042;-81
2021/09/10 09:14:44;;;;;;;19.02;10.20;;;;;;;21.67;54.74;99645.91;4967111;28;20058;-82
2021/09/10 09:17:20;;;;;;;19.45;9.65;;;;;;;21.89;54.16;99636.78;4956085;29;20046;-86
2021/09/10 09:20:09;;;;;;;23.63;10.35;;;;;;;22.00;53.86;99632.75;4947547;29;20109;-86
2021/09/10 09:23:06;;;;;;;21.48;10.90;;;;;;;22.03;53.65;99640.47;4942549;29;20083;-83
2021/09/10 09:26:13;;;;;;;16.52;9.45;;;;;;;21.98;53.31;99642.88;4930610;29;20052;-83
2021/09/10 09:29:20;;;;;;;17.98;10.25;;;;;;;22.31;52.64;99645.03;4928447;29;20052;-86
2021/09/10 09:32:20;;;;;;;16.65;9.65;;;;;;;22.04;53.10;99641.28;4944198;29;20040;-85
2021/09/10 09:35:25;;;;;;;17.35;8.93;;;;;;;22.01;53.06;99637.13;4845402;29;20534;-83
2021/09/10 09:38:04;;;;;;;15.82;7.88;;;;;;;21.98;52.66;99637.50;4885010;29;20052;-86
2021/09/10 09:41:21;;;;;;;18.17;8.50;;;;;;;22.07;52.52;99641.72;4842570;29;20055;-84
2021/09/10 09:44:25;;;;;;;13.23;8.38;;;;;;;22.10;52.75;99644.03;4905595;29;20047;-87
2021/09/10 09:46:59;;;;;;;20.27;9.07;;;;;;;22.25;52.37;99643.94;4872690;29;20491;-84
2021/09/10 09:49:27;;;;;;;18.45;9.38;;;;;;;22.19;52.48;99654.66;4867372;29;20049;-85
2021/09/10 09:52:03;;;;;;;19.98;8.25;;;;;;;22.29;52.17;99656.00;4872045;29;20063;-84
2021/09/10 09:54:33;;;;;;;15.82;8.77;;;;;;;22.35;51.67;99657.06;4870409;29;20046;-83
2021/09/10 09:57:23;;;;;;;18.70;9.23;;;;;;;22.26;51.80;99653.69;4833578;29;20125;-84
2021/09/10 09:59:51;;;;;;;25.42;12.25;;;;;;;22.52;51.02;99660.34;4838531;29;20556;-87
2021/09/10 10:02:18;;;;;;;13.82;9.02;;;;;;;22.83;50.18;99655.53;4846606;29;20065;-83
2021/09/10 10:04:43;;;;;;;12.18;7.47;;;;;;;23.13;49.47;99657.97;4878943;29;20037;-81
2021/09/10 10:07:27;;;;;;;10.77;8.15;;;;;;;23.42;48.55;99654.16;4854921;29;20132;-87
2021/09/10 10:09:56;;;;;;;17.20;8.27;;;;;;;23.54;48.35;99663.34;4835452;29;20508;-87
2021/09/10 10:12:25;;;;;;;13.55;7.90;;;;;;;23.40;48.87;99659.78;4893622;29;20056;-86
2021/09/10 10:14:52;;;;;;;18.95;8.18;;;;;;;23.34;48.88;99663.28;4933612;29;20688;-82
2021/09/10 10:17:37;;;;;;;13.85;8.57;;;;;;;23.18;48.70;99664.47;4902240;29;20146;-83
2021/09/10 10:20:50;;;;;;;15.27;8.77;;;;;;;23.00;48.69;99670.34;4918113;29;20048;-84
2021/09/10 10:23:44;;;;;;;12.20;7.35;;;;;;;22.73;49.95;99672.91;4883234;29;20048;-87
2021/09/10 10:26:38;;;;;;;20.08;10.55;;;;;;;22.58;50.01;99667.63;4900904;29;20048;-82
2021/09/10 10:29:17;;;;;;;15.07;7.38;;;;;;;22.65;49.83;99664.97;4885862;29;20145;-86
2021/09/10 10:32:07;;;;;;;13.18;7.18;;;;;;;22.59;49.91;99672.00;4895319;29;20062;-83
2021/09/10 10:34:57;;;;;;;15.93;6.57;;;;;;;22.75;48.80;99670.88;4869114;29;20444;-86
2021/09/10 10:37:43;;;;;;;14.07;6.20;;;;;;;22.82;48.37;99672.75;4903280;29;20100;-84
2021/09/10 10:40:30;;;;;;;15.90;7.05;;;;;;;22.83;48.25;99666.31;4875136;29;20068;-82
2021/09/10 10:43:05;;;;;;;11.30;6.65;;;;;;;23.10;47.70;99675.38;4898064;29;20097;-85
2021/09/10 10:45:41;;;;;;;15.48;6.93;;;;;;;22.78;47.83;99667.75;4880397;29;20044;-86
2021/09/10 10:48:32;;;;;;;14.27;7.50;;;;;;;22.72;48.32;99668.56;4927891;29;20067;-82
2021/09/10 10:50:59;;;;;;;13.15;6.47;;;;;;;23.57;46.57;99662.09;4913271;29;20043;-85
2021/09/10 10:53:58;;;;;;;16.80;7.40;;;;;;;24.59;44.72;99664.66;4914263;29;20054;-81
2021/09/10 10:56:24;;;;;;;14.35;6.88;;;;;;;25.25;43.43;99673.66;4952693;28;20051;-85
2021/09/10 10:59:14;;;;;;;14.27;6.70;;;;;;;25.98;42.21;99671.56;4930093;28;20137;-85
2021/09/10 11:02:17;;;;;;;13.23;8.45;;;;;;;26.10;41.72;99669.03;4976978;28;20035;-80
2021/09/10 11:04:51;;;;;;;16.90;8.30;;;;;;;26.05;41.25;99671.53;4977282;28;20389;-82
2021/09/10 11:07:24;;;;;;;14.60;7.97;;;;;;;25.87;42.11;99667.72;4946556;28;20043;-83
2021/09/10 11:10:05;;;;;;;14.70;6.85;;;;;;;25.17;42.67;99665.75;4918070;28;20428;-83
2021/09/10 11:12:32;;;;;;;16.88;8.75;;;;;;;25.00;43.52;99674.38;4951299;28;20526;-83
2021/09/10 11:14:59;;;;;;;19.30;10.80;;;;;;;24.92;43.15;99669.19;4895808;29;20056;-83
2021/09/10 11:17:31;;;;;;;;;;;;;;;24.77;43.64;99671.31;4908402;29;20048;-83
2021/09/10 11:20:15;;;;;;;12.40;6.10;;;;;;;25.07;42.08;99666.22;4911552;29;19923;-83
2021/09/10 11:22:48;;;;;;;8.70;5.72;;;;;;;25.20;42.15;99668.06;4879208;29;20116;-83
2021/09/10 11:25:20;;;;;;;15.52;5.75;;;;;;;25.28;42.02;99672.38;4874815;29;20450;-83
2021/09/10 11:30:43;;;;;;;15.27;6.28;;;;;;;24.84;42.91;99669.44;4873830;29;20052;-85
2021/09/10 11:33:53;;;;;;;16.80;7.13;;;;;;;24.37;43.67;99664.06;4901665;29;20072;-83
2021/09/10 11:36:24;;;;;;;17.70;8.20;;;;;;;23.87;45.44;99678.75;4903651;29;20056;-83